Mitchell, SD

04:56 PM CST am 25. November 2014 (GMT -0600)
Pleasant Hills | Change Station
CLOSE
Current Station
Persönliche Wetterstationen
Location: Mitchell, SD
Höhe: 1285 ft
Wetterstationen in der Umgebung

Höhe 1285 ft 43.73 °N, 98.01 °W | Updated 1 minute ago

Bedeckt
Bedeckt
38.3 °F
gefühlte 34 °F
N
5.4
Wind Wechselnd Wind aus Ost
Gusts 7.6 mph

Heute
Max. -- | schwach -- °F
--% Regenrisiko
Gestern
Max. -- | schwach -- °F
Precip. -- inch
7:39 AM 4:59 PM
Erstes Viertel, 14% visible
Druck 29.88 inch
Sichtweite 10.0 Meilen
Wolken Bedeckt 9000 ft
Windchill 34 °F
Taupunkt 27 °F
Feuchtigkeit 64%
Regen 0.00 inch
Schneehöhe Nicht verfügbar..
UV 0 von 12
Pollen .10 von 12
Luftqualität Nicht verfügbar..
Flu Activity Nicht verfügbar..
METAR KMHE 252153Z AUTO 14009KT 10SM OVC090 04/M03 A2983 RMK AO2 SLP117 T00391028

More Conditions Fewer Conditions

Druck 29.88 inch
Sichtweite 10.0 Meilen
Wolken Bedeckt 9000 ft
Windchill 34 °F
Taupunkt 27 °F
Feuchtigkeit 64%
Regen 0.00 inch
Schneehöhe Nicht verfügbar..
UV 0 von 12
Pollen .10 von 12
Luftqualität Nicht verfügbar..
Flu Activity Nicht verfügbar..
METAR KMHE 252153Z AUTO 14009KT 10SM OVC090 04/M03 A2983 RMK AO2 SLP117 T00391028

More Conditions Fewer Conditions

10-Day Weather Forecast

Almanac

Astronomie

Nov. 25, 2014 Aufgang Untergang
Genaue Zeit
Bürgerliche Dämmerung
Nautische Dämmerung
Astronomische Dämmerung
Mond
Länge des sichtbaren Lichts
Tageslänge
Tomorrow will be .
, % of the Moon is Illuminated

Heutige Rekorde

State Highs State Lows

Community

WunderPhotos

Upload Photos

1,773,609 Fotos hochgeladen!

WunderBlogs® & News

Nearby

Luftqualität

  Luftqualität LQ Index Schadstoff
Not available.

Schneehöhe

Station Depth Höhe

Erdbebenaktivität

Stadt Distance Mag. Time & Date
Minimum magnitude displayed is 2.5.

küstennahe Wassertemperaturen

Ort Temperatur

Wetterstationen in der Umgebung